CSAV Loncomilla — VRFB3 — position and weather

sailwx.info

Track history (hours):
 
Tides and Currents Weather Stations Pressure Air Temp Water Temp Dewpoint Dewpoint Depression Visibility Wind Speed Wind Dir Waves Ship Positions

CSAV Loncomilla

Last reported at 2016-Jun-21 01:06 UTC. Time now 2016-Jul-01 22:44 UTC.
Position N 11°02' W 061°24'.
Warning: this ship's position is 10 days out of date.

Length 261 m; draft 9.4 m.

Type: Cargo ship. MMSI: 477207400.

Date/timePositionNaut miles runAvg speedWind from/ knotsBaromVisibWave heightAir tempDewpointWater temp
2016-Jun-21 01:06N 11°02' W 061°24'913.5
2016-Jun-21 00:24N 11°04' W 061°33'1113.1
2016-Jun-20 23:33N 11°05' W 061°44'  
2016-Jun-15 09:19N 10°47' W 061°43'1013.1
2016-Jun-15 08:33N 10°37' W 061°42'1110.9
2016-Jun-15 07:33N 10°39' W 061°32'0 0.1
2016-Jun-15 06:31N 10°39' W 061°32'0 0.0
2016-Jun-15 05:31N 10°39' W 061°32'0 0.0
2016-Jun-15 04:31N 10°39' W 061°32'0 0.0
2016-Jun-15 03:31N 10°39' W 061°32'0 0.0
2016-Jun-15 02:31N 10°39' W 061°32'0 0.0
2016-Jun-15 01:31N 10°39' W 061°32'0 0.0
2016-Jun-15 00:31N 10°39' W 061°32'0 0.0
2016-Jun-14 23:31N 10°39' W 061°32'0 0.0
2016-Jun-14 22:31N 10°39' W 061°32'0 0.0
2016-Jun-14 21:31N 10°39' W 061°32'0 0.0
2016-Jun-14 20:31N 10°39' W 061°32'0 0.0
2016-Jun-14 19:31N 10°39' W 061°32'0 0.0
2016-Jun-14 18:31N 10°39' W 061°32'0 0.0
2016-Jun-14 17:31N 10°39' W 061°32'0 0.0
2016-Jun-14 16:31N 10°39' W 061°32'0 0.0
2016-Jun-14 15:31N 10°39' W 061°32'0 0.0
2016-Jun-14 14:31N 10°39' W 061°32'0 0.0
2016-Jun-14 13:31N 10°39' W 061°32'0 0.0
2016-Jun-14 12:31N 10°39' W 061°32'0 0.0
2016-Jun-14 11:31N 10°39' W 061°32'0 0.0
2016-Jun-14 10:31N 10°39' W 061°32'0 0.0
2016-Jun-14 09:31N 10°39' W 061°32'0 0.0
2016-Jun-14 08:31N 10°39' W 061°32'0 0.0
2016-Jun-14 07:31N 10°39' W 061°32'0 0.0
2016-Jun-14 05:31N 10°39' W 061°32'1 1.5
2016-Jun-14 04:34N 10°38' W 061°33'6 5.9
2016-Jun-14 03:34N 10°36' W 061°38'0 0.5
2016-Jun-14 02:34N 10°37' W 061°39'0 0.2
2016-Jun-14 01:34N 10°37' W 061°39'5 5.0
2016-Jun-14 00:33N 10°37' W 061°44'4 4.0
2016-Jun-13 23:34N 10°39' W 061°47'1 1.0
2016-Jun-13 22:33N 10°40' W 061°47'5 5.3
2016-Jun-13 21:32N 10°44' W 061°45'9 8.9
2016-Jun-13 20:33N 10°53' W 061°43'9 8.8
2016-Jun-13 19:32N 11°00' W 061°49'  
Track history (hours):
 
Tides and Currents Weather Stations Pressure Air Temp Water Temp Dewpoint Dewpoint Depression Visibility Wind Speed Wind Dir Waves Ship Positions

CSAV Loncomilla

Last reported at 2016-Jun-21 01:06 UTC. Time now 2016-Jul-01 22:44 UTC.
Position N 11°02' W 061°24'.
Warning: this ship's position is 10 days out of date.

Length 261 m; draft 9.4 m.

Type: Cargo ship. MMSI: 477207400.

Date/timePositionNaut miles runAvg speedWind from/ knotsBaromVisibWave heightAir tempDewpointWater temp
2016-Jun-21 01:06N 11°02' W 061°24'913.5
2016-Jun-21 00:24N 11°04' W 061°33'1113.1
2016-Jun-20 23:33N 11°05' W 061°44'  
2016-Jun-15 09:19N 10°47' W 061°43'1013.1
2016-Jun-15 08:33N 10°37' W 061°42'1110.9
2016-Jun-15 07:33N 10°39' W 061°32'0 0.1
2016-Jun-15 06:31N 10°39' W 061°32'0 0.0
2016-Jun-15 05:31N 10°39' W 061°32'0 0.0
2016-Jun-15 04:31N 10°39' W 061°32'0 0.0
2016-Jun-15 03:31N 10°39' W 061°32'0 0.0
2016-Jun-15 02:31N 10°39' W 061°32'0 0.0
2016-Jun-15 01:31N 10°39' W 061°32'0 0.0
2016-Jun-15 00:31N 10°39' W 061°32'0 0.0
2016-Jun-14 23:31N 10°39' W 061°32'0 0.0
2016-Jun-14 22:31N 10°39' W 061°32'0 0.0
2016-Jun-14 21:31N 10°39' W 061°32'0 0.0
2016-Jun-14 20:31N 10°39' W 061°32'0 0.0
2016-Jun-14 19:31N 10°39' W 061°32'0 0.0
2016-Jun-14 18:31N 10°39' W 061°32'0 0.0
2016-Jun-14 17:31N 10°39' W 061°32'0 0.0
2016-Jun-14 16:31N 10°39' W 061°32'0 0.0
2016-Jun-14 15:31N 10°39' W 061°32'0 0.0
2016-Jun-14 14:31N 10°39' W 061°32'0 0.0
2016-Jun-14 13:31N 10°39' W 061°32'0 0.0
2016-Jun-14 12:31N 10°39' W 061°32'0 0.0
2016-Jun-14 11:31N 10°39' W 061°32'0 0.0
2016-Jun-14 10:31N 10°39' W 061°32'0 0.0
2016-Jun-14 09:31N 10°39' W 061°32'0 0.0
2016-Jun-14 08:31N 10°39' W 061°32'0 0.0
2016-Jun-14 07:31N 10°39' W 061°32'0 0.0
2016-Jun-14 05:31N 10°39' W 061°32'1 1.5
2016-Jun-14 04:34N 10°38' W 061°33'6 5.9
2016-Jun-14 03:34N 10°36' W 061°38'0 0.5
2016-Jun-14 02:34N 10°37' W 061°39'0 0.2
2016-Jun-14 01:34N 10°37' W 061°39'5 5.0
2016-Jun-14 00:33N 10°37' W 061°44'4 4.0
2016-Jun-13 23:34N 10°39' W 061°47'1 1.0
2016-Jun-13 22:33N 10°40' W 061°47'5 5.3
2016-Jun-13 21:32N 10°44' W 061°45'9 8.9
2016-Jun-13 20:33N 10°53' W 061°43'9 8.8
2016-Jun-13 19:32N 11°00' W 061°49'  

Dump ship's entire track history